sensor_id;sensor_type;location;lat;lon;timestamp;temperature;humidity
79301;SHT31;68755;51.984;5.646;2024-01-27T00:00:58;5.3;75.1
79301;SHT31;68755;51.984;5.646;2024-01-27T00:03:27;5.3;75.0
79301;SHT31;68755;51.984;5.646;2024-01-27T00:05:57;5.3;75.2
79301;SHT31;68755;51.984;5.646;2024-01-27T00:08:27;5.3;75.2
79301;SHT31;68755;51.984;5.646;2024-01-27T00:10:56;5.3;75.1
79301;SHT31;68755;51.984;5.646;2024-01-27T00:13:26;5.3;75.2
79301;SHT31;68755;51.984;5.646;2024-01-27T00:15:56;5.3;75.2
79301;SHT31;68755;51.984;5.646;2024-01-27T00:18:25;5.3;75.0
79301;SHT31;68755;51.984;5.646;2024-01-27T00:20:55;5.3;75.1
79301;SHT31;68755;51.984;5.646;2024-01-27T00:23:25;5.3;75.1
79301;SHT31;68755;51.984;5.646;2024-01-27T00:25:54;5.2;75.0
79301;SHT31;68755;51.984;5.646;2024-01-27T00:28:24;5.2;75.1
79301;SHT31;68755;51.984;5.646;2024-01-27T00:30:54;5.2;75.1
79301;SHT31;68755;51.984;5.646;2024-01-27T00:33:23;5.2;75.0
79301;SHT31;68755;51.984;5.646;2024-01-27T00:35:53;5.2;74.9
79301;SHT31;68755;51.984;5.646;2024-01-27T00:38:23;5.2;75.0
79301;SHT31;68755;51.984;5.646;2024-01-27T00:40:53;5.2;75.0
79301;SHT31;68755;51.984;5.646;2024-01-27T00:43:23;5.2;74.9
79301;SHT31;68755;51.984;5.646;2024-01-27T00:45:52;5.1;74.8
79301;SHT31;68755;51.984;5.646;2024-01-27T00:48:22;5.1;74.7
79301;SHT31;68755;51.984;5.646;2024-01-27T00:50:52;5.1;74.7
79301;SHT31;68755;51.984;5.646;2024-01-27T00:53:21;5.1;74.7
79301;SHT31;68755;51.984;5.646;2024-01-27T00:55:51;5.1;74.6
79301;SHT31;68755;51.984;5.646;2024-01-27T00:58:20;5.1;74.9
79301;SHT31;68755;51.984;5.646;2024-01-27T01:00:50;5.1;75.1
79301;SHT31;68755;51.984;5.646;2024-01-27T01:03:20;5.0;75.0
79301;SHT31;68755;51.984;5.646;2024-01-27T01:05:49;5.0;75.1
79301;SHT31;68755;51.984;5.646;2024-01-27T01:08:19;5.0;75.2
79301;SHT31;68755;51.984;5.646;2024-01-27T01:10:48;5.0;75.2
79301;SHT31;68755;51.984;5.646;2024-01-27T01:13:18;5.0;75.3
79301;SHT31;68755;51.984;5.646;2024-01-27T01:15:49;5.0;75.5
79301;SHT31;68755;51.984;5.646;2024-01-27T01:18:19;5.0;75.5
79301;SHT31;68755;51.984;5.646;2024-01-27T01:20:48;4.9;75.6
79301;SHT31;68755;51.984;5.646;2024-01-27T01:23:18;4.9;75.3
79301;SHT31;68755;51.984;5.646;2024-01-27T01:25:48;4.9;75.3
79301;SHT31;68755;51.984;5.646;2024-01-27T01:28:17;4.9;75.3
79301;SHT31;68755;51.984;5.646;2024-01-27T01:30:47;4.9;75.5
79301;SHT31;68755;51.984;5.646;2024-01-27T01:33:17;4.9;75.4
79301;SHT31;68755;51.984;5.646;2024-01-27T01:35:47;4.9;75.4
79301;SHT31;68755;51.984;5.646;2024-01-27T01:38:17;4.9;75.5
79301;SHT31;68755;51.984;5.646;2024-01-27T01:40:47;4.9;75.4
79301;SHT31;68755;51.984;5.646;2024-01-27T01:43:16;4.8;75.1
79301;SHT31;68755;51.984;5.646;2024-01-27T01:45:46;4.8;75.1
79301;SHT31;68755;51.984;5.646;2024-01-27T01:48:18;4.8;75.0
79301;SHT31;68755;51.984;5.646;2024-01-27T01:50:48;4.8;75.1
79301;SHT31;68755;51.984;5.646;2024-01-27T01:53:19;4.8;75.4
79301;SHT31;68755;51.984;5.646;2024-01-27T01:55:51;4.8;75.3
79301;SHT31;68755;51.984;5.646;2024-01-27T01:58:22;4.7;75.5
79301;SHT31;68755;51.984;5.646;2024-01-27T02:00:53;4.7;75.5
79301;SHT31;68755;51.984;5.646;2024-01-27T02:03:25;4.7;75.3
79301;SHT31;68755;51.984;5.646;2024-01-27T02:05:55;4.7;75.5
79301;SHT31;68755;51.984;5.646;2024-01-27T02:08:24;4.7;75.5
79301;SHT31;68755;51.984;5.646;2024-01-27T02:10:57;4.7;75.5
79301;SHT31;68755;51.984;5.646;2024-01-27T02:13:29;4.7;75.2
79301;SHT31;68755;51.984;5.646;2024-01-27T02:16:00;4.6;75.4
79301;SHT31;68755;51.984;5.646;2024-01-27T02:18:31;4.6;75.6
79301;SHT31;68755;51.984;5.646;2024-01-27T02:21:01;4.6;75.3
79301;SHT31;68755;51.984;5.646;2024-01-27T02:23:33;4.6;75.3
79301;SHT31;68755;51.984;5.646;2024-01-27T02:26:04;4.6;75.3
79301;SHT31;68755;51.984;5.646;2024-01-27T02:28:34;4.6;75.1
79301;SHT31;68755;51.984;5.646;2024-01-27T02:31:04;4.5;75.3
79301;SHT31;68755;51.984;5.646;2024-01-27T02:33:33;4.5;75.4
79301;SHT31;68755;51.984;5.646;2024-01-27T02:36:03;4.5;75.3
79301;SHT31;68755;51.984;5.646;2024-01-27T02:38:33;4.5;75.2
79301;SHT31;68755;51.984;5.646;2024-01-27T02:41:02;4.5;75.5
79301;SHT31;68755;51.984;5.646;2024-01-27T02:43:32;4.5;75.6
79301;SHT31;68755;51.984;5.646;2024-01-27T02:46:03;4.4;75.5
79301;SHT31;68755;51.984;5.646;2024-01-27T02:48:34;4.4;75.7
79301;SHT31;68755;51.984;5.646;2024-01-27T02:51:04;4.4;75.9
79301;SHT31;68755;51.984;5.646;2024-01-27T02:53:34;4.4;76.1
79301;SHT31;68755;51.984;5.646;2024-01-27T02:56:06;4.4;76.1
79301;SHT31;68755;51.984;5.646;2024-01-27T02:58:36;4.4;76.3
79301;SHT31;68755;51.984;5.646;2024-01-27T03:01:05;4.3;76.2
79301;SHT31;68755;51.984;5.646;2024-01-27T03:03:36;4.3;76.2
79301;SHT31;68755;51.984;5.646;2024-01-27T03:06:06;4.3;76.6
79301;SHT31;68755;51.984;5.646;2024-01-27T03:08:35;4.3;76.6
79301;SHT31;68755;51.984;5.646;2024-01-27T03:11:05;4.3;76.5
79301;SHT31;68755;51.984;5.646;2024-01-27T03:13:35;4.3;76.8
79301;SHT31;68755;51.984;5.646;2024-01-27T03:16:08;4.3;76.8
79301;SHT31;68755;51.984;5.646;2024-01-27T03:18:40;4.3;76.7
79301;SHT31;68755;51.984;5.646;2024-01-27T03:21:10;4.3;76.7
79301;SHT31;68755;51.984;5.646;2024-01-27T03:23:39;4.3;76.7
79301;SHT31;68755;51.984;5.646;2024-01-27T03:26:11;4.2;76.6
79301;SHT31;68755;51.984;5.646;2024-01-27T03:28:41;4.2;76.9
79301;SHT31;68755;51.984;5.646;2024-01-27T03:31:10;4.2;77.0
79301;SHT31;68755;51.984;5.646;2024-01-27T03:33:40;4.2;77.0
79301;SHT31;68755;51.984;5.646;2024-01-27T03:36:12;4.2;77.1
79301;SHT31;68755;51.984;5.646;2024-01-27T03:38:43;4.2;77.2
79301;SHT31;68755;51.984;5.646;2024-01-27T03:41:12;4.2;77.2
79301;SHT31;68755;51.984;5.646;2024-01-27T03:43:42;4.2;77.2
79301;SHT31;68755;51.984;5.646;2024-01-27T03:46:14;4.2;77.3
79301;SHT31;68755;51.984;5.646;2024-01-27T03:48:43;4.2;77.3
79301;SHT31;68755;51.984;5.646;2024-01-27T03:51:13;4.2;77.4
79301;SHT31;68755;51.984;5.646;2024-01-27T03:53:42;4.2;77.5
79301;SHT31;68755;51.984;5.646;2024-01-27T03:56:13;4.2;77.6
79301;SHT31;68755;51.984;5.646;2024-01-27T03:58:43;4.1;77.7
79301;SHT31;68755;51.984;5.646;2024-01-27T04:01:12;4.1;77.5
79301;SHT31;68755;51.984;5.646;2024-01-27T04:03:42;4.1;77.2
79301;SHT31;68755;51.984;5.646;2024-01-27T04:06:12;4.1;77.3
79301;SHT31;68755;51.984;5.646;2024-01-27T04:08:42;4.1;77.4
79301;SHT31;68755;51.984;5.646;2024-01-27T04:11:20;4.1;77.4
79301;SHT31;68755;51.984;5.646;2024-01-27T04:13:50;4.1;77.5
79301;SHT31;68755;51.984;5.646;2024-01-27T04:16:20;4.1;77.8
79301;SHT31;68755;51.984;5.646;2024-01-27T04:18:50;4.1;77.9
79301;SHT31;68755;51.984;5.646;2024-01-27T04:21:19;4.1;77.9
79301;SHT31;68755;51.984;5.646;2024-01-27T04:23:50;4.1;78.3
79301;SHT31;68755;51.984;5.646;2024-01-27T04:26:20;4.1;78.3
79301;SHT31;68755;51.984;5.646;2024-01-27T04:28:49;4.1;78.3
79301;SHT31;68755;51.984;5.646;2024-01-27T04:31:19;4.1;78.1
79301;SHT31;68755;51.984;5.646;2024-01-27T04:33:49;4.1;78.2
79301;SHT31;68755;51.984;5.646;2024-01-27T04:36:27;4.1;78.2
79301;SHT31;68755;51.984;5.646;2024-01-27T04:38:57;4.0;78.0
79301;SHT31;68755;51.984;5.646;2024-01-27T04:41:27;4.0;77.8
79301;SHT31;68755;51.984;5.646;2024-01-27T04:43:56;4.0;77.6
79301;SHT31;68755;51.984;5.646;2024-01-27T04:46:26;4.0;77.5
79301;SHT31;68755;51.984;5.646;2024-01-27T04:48:56;4.0;77.6
79301;SHT31;68755;51.984;5.646;2024-01-27T04:51:26;4.0;77.6
79301;SHT31;68755;51.984;5.646;2024-01-27T04:53:55;4.0;77.7
79301;SHT31;68755;51.984;5.646;2024-01-27T04:56:25;4.0;77.4
79301;SHT31;68755;51.984;5.646;2024-01-27T04:58:55;4.0;77.3
79301;SHT31;68755;51.984;5.646;2024-01-27T05:01:25;4.0;77.5
79301;SHT31;68755;51.984;5.646;2024-01-27T05:03:54;4.0;77.5
79301;SHT31;68755;51.984;5.646;2024-01-27T05:06:24;4.0;77.8
79301;SHT31;68755;51.984;5.646;2024-01-27T05:08:54;4.0;77.9
79301;SHT31;68755;51.984;5.646;2024-01-27T05:11:30;3.9;77.9
79301;SHT31;68755;51.984;5.646;2024-01-27T05:14:00;3.9;77.9
79301;SHT31;68755;51.984;5.646;2024-01-27T05:16:30;3.9;78.1
79301;SHT31;68755;51.984;5.646;2024-01-27T05:19:01;3.9;77.9
79301;SHT31;68755;51.984;5.646;2024-01-27T05:21:30;3.9;77.7
79301;SHT31;68755;51.984;5.646;2024-01-27T05:24:00;3.9;77.6
79301;SHT31;68755;51.984;5.646;2024-01-27T05:26:29;3.9;77.7
79301;SHT31;68755;51.984;5.646;2024-01-27T05:28:59;3.9;77.9
79301;SHT31;68755;51.984;5.646;2024-01-27T05:31:29;3.9;78.0
79301;SHT31;68755;51.984;5.646;2024-01-27T05:33:59;3.8;77.9
79301;SHT31;68755;51.984;5.646;2024-01-27T05:36:29;3.8;78.1
79301;SHT31;68755;51.984;5.646;2024-01-27T05:38:58;3.8;78.0
79301;SHT31;68755;51.984;5.646;2024-01-27T05:41:28;3.8;77.8
79301;SHT31;68755;51.984;5.646;2024-01-27T05:43:58;3.8;77.8
79301;SHT31;68755;51.984;5.646;2024-01-27T05:46:27;3.8;77.7
79301;SHT31;68755;51.984;5.646;2024-01-27T05:48:57;3.8;77.5
79301;SHT31;68755;51.984;5.646;2024-01-27T05:51:30;3.8;77.5
79301;SHT31;68755;51.984;5.646;2024-01-27T05:54:01;3.8;77.7
79301;SHT31;68755;51.984;5.646;2024-01-27T05:56:30;3.7;77.6
79301;SHT31;68755;51.984;5.646;2024-01-27T05:59:00;3.7;77.5
79301;SHT31;68755;51.984;5.646;2024-01-27T06:01:30;3.7;77.7
79301;SHT31;68755;51.984;5.646;2024-01-27T06:04:00;3.7;77.7
79301;SHT31;68755;51.984;5.646;2024-01-27T06:06:29;3.7;77.8
79301;SHT31;68755;51.984;5.646;2024-01-27T06:08:59;3.7;77.7
79301;SHT31;68755;51.984;5.646;2024-01-27T06:11:31;3.7;77.6
79301;SHT31;68755;51.984;5.646;2024-01-27T06:14:02;3.7;77.5
79301;SHT31;68755;51.984;5.646;2024-01-27T06:16:35;3.7;77.6
79301;SHT31;68755;51.984;5.646;2024-01-27T06:19:04;3.6;77.5
79301;SHT31;68755;51.984;5.646;2024-01-27T06:21:36;3.6;77.7
79301;SHT31;68755;51.984;5.646;2024-01-27T06:24:06;3.6;78.1
79301;SHT31;68755;51.984;5.646;2024-01-27T06:26:36;3.6;78.1
79301;SHT31;68755;51.984;5.646;2024-01-27T06:29:05;3.6;78.2
79301;SHT31;68755;51.984;5.646;2024-01-27T06:31:35;3.6;78.1
79301;SHT31;68755;51.984;5.646;2024-01-27T06:34:04;3.6;77.9
79301;SHT31;68755;51.984;5.646;2024-01-27T06:36:34;3.6;78.0
79301;SHT31;68755;51.984;5.646;2024-01-27T06:39:04;3.6;77.9
79301;SHT31;68755;51.984;5.646;2024-01-27T06:41:35;3.5;78.2
79301;SHT31;68755;51.984;5.646;2024-01-27T06:44:07;3.5;78.1
79301;SHT31;68755;51.984;5.646;2024-01-27T06:46:37;3.5;78.4
79301;SHT31;68755;51.984;5.646;2024-01-27T06:49:06;3.5;78.5
79301;SHT31;68755;51.984;5.646;2024-01-27T06:51:36;3.5;78.6
79301;SHT31;68755;51.984;5.646;2024-01-27T06:54:05;3.5;78.3
79301;SHT31;68755;51.984;5.646;2024-01-27T06:56:35;3.5;78.5
79301;SHT31;68755;51.984;5.646;2024-01-27T06:59:06;3.5;78.3
79301;SHT31;68755;51.984;5.646;2024-01-27T07:01:35;3.5;78.2
79301;SHT31;68755;51.984;5.646;2024-01-27T07:04:05;3.5;78.0
79301;SHT31;68755;51.984;5.646;2024-01-27T07:06:35;3.5;77.8
79301;SHT31;68755;51.984;5.646;2024-01-27T07:09:06;3.5;77.6
79301;SHT31;68755;51.984;5.646;2024-01-27T07:11:36;3.5;77.6
79301;SHT31;68755;51.984;5.646;2024-01-27T07:14:06;3.5;77.7
79301;SHT31;68755;51.984;5.646;2024-01-27T07:16:36;3.4;77.9
79301;SHT31;68755;51.984;5.646;2024-01-27T07:19:06;3.4;77.8
79301;SHT31;68755;51.984;5.646;2024-01-27T07:21:35;3.4;78.0
79301;SHT31;68755;51.984;5.646;2024-01-27T07:24:06;3.4;78.1
79301;SHT31;68755;51.984;5.646;2024-01-27T07:26:39;3.4;78.1
79301;SHT31;68755;51.984;5.646;2024-01-27T07:29:09;3.4;78.4
79301;SHT31;68755;51.984;5.646;2024-01-27T07:31:39;3.4;78.4
79301;SHT31;68755;51.984;5.646;2024-01-27T07:34:10;3.4;78.5
79301;SHT31;68755;51.984;5.646;2024-01-27T07:36:40;3.4;78.7
79301;SHT31;68755;51.984;5.646;2024-01-27T07:39:11;3.4;78.9
79301;SHT31;68755;51.984;5.646;2024-01-27T07:41:41;3.4;78.9
79301;SHT31;68755;51.984;5.646;2024-01-27T07:44:12;3.4;79.2
79301;SHT31;68755;51.984;5.646;2024-01-27T07:46:42;3.4;79.4
79301;SHT31;68755;51.984;5.646;2024-01-27T07:49:12;3.4;79.4
79301;SHT31;68755;51.984;5.646;2024-01-27T07:51:42;3.4;79.5
79301;SHT31;68755;51.984;5.646;2024-01-27T07:54:12;3.4;79.5
79301;SHT31;68755;51.984;5.646;2024-01-27T07:56:44;3.4;79.6
79301;SHT31;68755;51.984;5.646;2024-01-27T07:59:14;3.4;79.8
79301;SHT31;68755;51.984;5.646;2024-01-27T08:01:44;3.4;79.9
79301;SHT31;68755;51.984;5.646;2024-01-27T08:04:15;3.4;80.1
79301;SHT31;68755;51.984;5.646;2024-01-27T08:06:50;3.4;80.1
79301;SHT31;68755;51.984;5.646;2024-01-27T08:09:22;3.4;80.2
79301;SHT31;68755;51.984;5.646;2024-01-27T08:11:52;3.4;80.3
79301;SHT31;68755;51.984;5.646;2024-01-27T08:14:24;3.4;80.3
79301;SHT31;68755;51.984;5.646;2024-01-27T08:16:54;3.4;80.5
79301;SHT31;68755;51.984;5.646;2024-01-27T08:19:24;3.4;80.7
79301;SHT31;68755;51.984;5.646;2024-01-27T08:21:56;3.4;80.7
79301;SHT31;68755;51.984;5.646;2024-01-27T08:24:26;3.5;80.9
79301;SHT31;68755;51.984;5.646;2024-01-27T08:26:56;3.5;80.9
79301;SHT31;68755;51.984;5.646;2024-01-27T08:29:26;3.5;80.9
79301;SHT31;68755;51.984;5.646;2024-01-27T08:31:55;3.5;81.0
79301;SHT31;68755;51.984;5.646;2024-01-27T08:34:25;3.5;81.1
79301;SHT31;68755;51.984;5.646;2024-01-27T08:37:01;3.5;81.1
79301;SHT31;68755;51.984;5.646;2024-01-27T08:39:31;3.5;81.0
79301;SHT31;68755;51.984;5.646;2024-01-27T08:42:01;3.6;82.1
79301;SHT31;68755;51.984;5.646;2024-01-27T08:44:30;3.6;82.7
79301;SHT31;68755;51.984;5.646;2024-01-27T08:47:00;3.6;81.8
79301;SHT31;68755;51.984;5.646;2024-01-27T08:49:30;3.6;81.3
79301;SHT31;68755;51.984;5.646;2024-01-27T08:51:59;3.7;81.3
79301;SHT31;68755;51.984;5.646;2024-01-27T08:54:29;3.7;81.3
79301;SHT31;68755;51.984;5.646;2024-01-27T08:56:59;3.7;81.3
79301;SHT31;68755;51.984;5.646;2024-01-27T08:59:29;3.7;81.3
79301;SHT31;68755;51.984;5.646;2024-01-27T09:01:59;3.8;81.4
79301;SHT31;68755;51.984;5.646;2024-01-27T09:04:28;3.8;81.4
79301;SHT31;68755;51.984;5.646;2024-01-27T09:06:58;3.8;81.7
79301;SHT31;68755;51.984;5.646;2024-01-27T09:09:27;3.9;81.7
79301;SHT31;68755;51.984;5.646;2024-01-27T09:11:57;3.9;81.8
79301;SHT31;68755;51.984;5.646;2024-01-27T09:14:27;3.9;81.8
79301;SHT31;68755;51.984;5.646;2024-01-27T09:16:57;4.0;81.9
79301;SHT31;68755;51.984;5.646;2024-01-27T09:19:26;4.0;81.9
79301;SHT31;68755;51.984;5.646;2024-01-27T09:21:58;4.0;81.7
79301;SHT31;68755;51.984;5.646;2024-01-27T09:24:28;4.1;81.5
79301;SHT31;68755;51.984;5.646;2024-01-27T09:26:57;4.1;81.3
79301;SHT31;68755;51.984;5.646;2024-01-27T09:29:27;4.1;81.0
79301;SHT31;68755;51.984;5.646;2024-01-27T09:31:57;4.1;81.2
79301;SHT31;68755;51.984;5.646;2024-01-27T09:34:26;4.2;81.2
79301;SHT31;68755;51.984;5.646;2024-01-27T09:36:56;4.2;80.7
79301;SHT31;68755;51.984;5.646;2024-01-27T09:39:26;4.2;80.8
79301;SHT31;68755;51.984;5.646;2024-01-27T09:41:56;4.2;80.6
79301;SHT31;68755;51.984;5.646;2024-01-27T09:44:28;4.2;80.9
79301;SHT31;68755;51.984;5.646;2024-01-27T09:46:58;4.2;81.0
79301;SHT31;68755;51.984;5.646;2024-01-27T09:49:28;4.2;80.9
79301;SHT31;68755;51.984;5.646;2024-01-27T09:51:59;4.2;80.9
79301;SHT31;68755;51.984;5.646;2024-01-27T09:54:29;4.3;80.9
79301;SHT31;68755;51.984;5.646;2024-01-27T09:57:00;4.3;81.0
79301;SHT31;68755;51.984;5.646;2024-01-27T09:59:35;4.3;81.3
79301;SHT31;68755;51.984;5.646;2024-01-27T10:02:08;4.3;81.0
79301;SHT31;68755;51.984;5.646;2024-01-27T10:04:41;4.3;81.1
79301;SHT31;68755;51.984;5.646;2024-01-27T10:07:11;4.3;81.2
79301;SHT31;68755;51.984;5.646;2024-01-27T10:09:41;4.3;81.5
79301;SHT31;68755;51.984;5.646;2024-01-27T10:12:12;4.4;81.5
79301;SHT31;68755;51.984;5.646;2024-01-27T10:14:43;4.4;81.4
79301;SHT31;68755;51.984;5.646;2024-01-27T10:17:22;4.4;81.6
79301;SHT31;68755;51.984;5.646;2024-01-27T10:20:05;4.4;81.4
79301;SHT31;68755;51.984;5.646;2024-01-27T10:22:40;4.5;81.7
79301;SHT31;68755;51.984;5.646;2024-01-27T10:25:11;4.5;81.4
79301;SHT31;68755;51.984;5.646;2024-01-27T10:27:41;4.5;81.6
79301;SHT31;68755;51.984;5.646;2024-01-27T10:30:17;4.5;81.4
79301;SHT31;68755;51.984;5.646;2024-01-27T10:32:56;4.6;81.4
79301;SHT31;68755;51.984;5.646;2024-01-27T10:35:27;4.6;81.1
79301;SHT31;68755;51.984;5.646;2024-01-27T10:37:57;4.6;80.9
79301;SHT31;68755;51.984;5.646;2024-01-27T10:40:26;4.6;81.2
79301;SHT31;68755;51.984;5.646;2024-01-27T10:43:01;4.7;81.2
79301;SHT31;68755;51.984;5.646;2024-01-27T10:45:35;4.7;81.1
79301;SHT31;68755;51.984;5.646;2024-01-27T10:48:08;4.7;81.7
79301;SHT31;68755;51.984;5.646;2024-01-27T10:50:40;4.7;82.0
79301;SHT31;68755;51.984;5.646;2024-01-27T10:53:21;4.8;82.3
79301;SHT31;68755;51.984;5.646;2024-01-27T10:55:57;4.8;82.1
79301;SHT31;68755;51.984;5.646;2024-01-27T10:58:30;4.8;82.4
79301;SHT31;68755;51.984;5.646;2024-01-27T11:01:05;4.9;82.8
79301;SHT31;68755;51.984;5.646;2024-01-27T11:03:38;4.9;82.8
79301;SHT31;68755;51.984;5.646;2024-01-27T11:06:11;4.9;83.0
79301;SHT31;68755;51.984;5.646;2024-01-27T11:08:42;5.0;82.7
79301;SHT31;68755;51.984;5.646;2024-01-27T11:11:13;5.0;82.3
79301;SHT31;68755;51.984;5.646;2024-01-27T11:13:43;5.1;82.5
79301;SHT31;68755;51.984;5.646;2024-01-27T11:16:18;5.1;82.8
79301;SHT31;68755;51.984;5.646;2024-01-27T11:18:48;5.1;82.8
79301;SHT31;68755;51.984;5.646;2024-01-27T11:21:18;5.2;82.7
79301;SHT31;68755;51.984;5.646;2024-01-27T11:23:48;5.2;82.7
79301;SHT31;68755;51.984;5.646;2024-01-27T11:26:20;5.3;82.6
79301;SHT31;68755;51.984;5.646;2024-01-27T11:28:51;5.3;82.6
79301;SHT31;68755;51.984;5.646;2024-01-27T11:31:21;5.3;82.6
79301;SHT31;68755;51.984;5.646;2024-01-27T11:33:51;5.4;82.1
79301;SHT31;68755;51.984;5.646;2024-01-27T11:36:23;5.4;81.9
79301;SHT31;68755;51.984;5.646;2024-01-27T11:38:57;5.5;81.8
79301;SHT31;68755;51.984;5.646;2024-01-27T11:41:28;5.5;81.6
79301;SHT31;68755;51.984;5.646;2024-01-27T11:43:59;5.6;81.5
79301;SHT31;68755;51.984;5.646;2024-01-27T11:46:29;5.6;80.6
79301;SHT31;68755;51.984;5.646;2024-01-27T11:48:59;5.6;80.5
79301;SHT31;68755;51.984;5.646;2024-01-27T11:51:29;5.7;80.3
79301;SHT31;68755;51.984;5.646;2024-01-27T11:53:58;5.7;79.6
79301;SHT31;68755;51.984;5.646;2024-01-27T11:56:28;5.8;78.8
79301;SHT31;68755;51.984;5.646;2024-01-27T11:58:59;5.8;78.4
79301;SHT31;68755;51.984;5.646;2024-01-27T12:01:29;5.9;78.7
79301;SHT31;68755;51.984;5.646;2024-01-27T12:03:59;5.9;78.0
79301;SHT31;68755;51.984;5.646;2024-01-27T12:06:30;5.9;77.8
79301;SHT31;68755;51.984;5.646;2024-01-27T12:09:00;6.0;77.5
79301;SHT31;68755;51.984;5.646;2024-01-27T12:11:30;6.0;77.6
79301;SHT31;68755;51.984;5.646;2024-01-27T12:13:59;6.0;77.5
79301;SHT31;68755;51.984;5.646;2024-01-27T12:16:29;6.1;77.4
79301;SHT31;68755;51.984;5.646;2024-01-27T12:19:00;6.1;77.1
79301;SHT31;68755;51.984;5.646;2024-01-27T12:21:31;6.1;77.2
79301;SHT31;68755;51.984;5.646;2024-01-27T12:24:00;6.2;77.3
79301;SHT31;68755;51.984;5.646;2024-01-27T12:26:31;6.2;77.6
79301;SHT31;68755;51.984;5.646;2024-01-27T12:29:00;6.3;77.1
79301;SHT31;68755;51.984;5.646;2024-01-27T12:31:32;6.3;76.9
79301;SHT31;68755;51.984;5.646;2024-01-27T12:34:02;6.3;76.5
79301;SHT31;68755;51.984;5.646;2024-01-27T12:36:31;6.4;77.0
79301;SHT31;68755;51.984;5.646;2024-01-27T12:39:02;6.4;76.3
79301;SHT31;68755;51.984;5.646;2024-01-27T12:41:34;6.4;76.4
79301;SHT31;68755;51.984;5.646;2024-01-27T12:44:06;6.4;76.4
79301;SHT31;68755;51.984;5.646;2024-01-27T12:46:35;6.5;76.6
79301;SHT31;68755;51.984;5.646;2024-01-27T12:49:05;6.5;76.4
79301;SHT31;68755;51.984;5.646;2024-01-27T12:51:37;6.5;76.7
79301;SHT31;68755;51.984;5.646;2024-01-27T12:54:06;6.5;76.1
79301;SHT31;68755;51.984;5.646;2024-01-27T12:56:36;6.6;76.3
79301;SHT31;68755;51.984;5.646;2024-01-27T12:59:06;6.6;76.3
79301;SHT31;68755;51.984;5.646;2024-01-27T13:01:36;6.6;76.3
79301;SHT31;68755;51.984;5.646;2024-01-27T13:04:06;6.6;76.5
79301;SHT31;68755;51.984;5.646;2024-01-27T13:06:36;6.7;76.7
79301;SHT31;68755;51.984;5.646;2024-01-27T13:09:06;6.7;76.8
79301;SHT31;68755;51.984;5.646;2024-01-27T13:11:38;6.7;76.0
79301;SHT31;68755;51.984;5.646;2024-01-27T13:14:08;6.7;75.9
79301;SHT31;68755;51.984;5.646;2024-01-27T13:16:42;6.8;76.0
79301;SHT31;68755;51.984;5.646;2024-01-27T13:19:12;6.8;76.2
79301;SHT31;68755;51.984;5.646;2024-01-27T13:21:43;6.8;76.2
79301;SHT31;68755;51.984;5.646;2024-01-27T13:24:12;6.9;75.7
79301;SHT31;68755;51.984;5.646;2024-01-27T13:26:42;6.9;75.3
79301;SHT31;68755;51.984;5.646;2024-01-27T13:29:13;6.9;75.2
79301;SHT31;68755;51.984;5.646;2024-01-27T13:31:45;6.9;74.6
79301;SHT31;68755;51.984;5.646;2024-01-27T13:34:15;6.9;74.8
79301;SHT31;68755;51.984;5.646;2024-01-27T13:36:47;7.0;74.8
79301;SHT31;68755;51.984;5.646;2024-01-27T13:39:16;7.0;74.6
79301;SHT31;68755;51.984;5.646;2024-01-27T13:41:46;7.0;75.0
79301;SHT31;68755;51.984;5.646;2024-01-27T13:44:15;7.0;74.7
79301;SHT31;68755;51.984;5.646;2024-01-27T13:46:45;7.0;74.2
79301;SHT31;68755;51.984;5.646;2024-01-27T13:49:15;7.0;74.2
79301;SHT31;68755;51.984;5.646;2024-01-27T13:51:45;7.0;73.7
79301;SHT31;68755;51.984;5.646;2024-01-27T13:54:14;7.1;73.6
79301;SHT31;68755;51.984;5.646;2024-01-27T13:56:46;7.1;73.5
79301;SHT31;68755;51.984;5.646;2024-01-27T13:59:16;7.1;73.8
79301;SHT31;68755;51.984;5.646;2024-01-27T14:01:47;7.1;74.3
79301;SHT31;68755;51.984;5.646;2024-01-27T14:04:16;7.1;74.1
79301;SHT31;68755;51.984;5.646;2024-01-27T14:06:46;7.1;73.8
79301;SHT31;68755;51.984;5.646;2024-01-27T14:09:16;7.1;73.6
79301;SHT31;68755;51.984;5.646;2024-01-27T14:11:46;7.1;73.4
79301;SHT31;68755;51.984;5.646;2024-01-27T14:14:16;7.1;72.9
79301;SHT31;68755;51.984;5.646;2024-01-27T14:16:46;7.2;72.8
79301;SHT31;68755;51.984;5.646;2024-01-27T14:19:16;7.2;73.0
79301;SHT31;68755;51.984;5.646;2024-01-27T14:21:46;7.2;72.7
79301;SHT31;68755;51.984;5.646;2024-01-27T14:24:16;7.2;72.4
79301;SHT31;68755;51.984;5.646;2024-01-27T14:26:45;7.2;72.3
79301;SHT31;68755;51.984;5.646;2024-01-27T14:29:15;7.2;72.6
79301;SHT31;68755;51.984;5.646;2024-01-27T14:31:45;7.2;73.7
79301;SHT31;68755;51.984;5.646;2024-01-27T14:34:15;7.2;74.6
79301;SHT31;68755;51.984;5.646;2024-01-27T14:36:46;7.2;74.2
79301;SHT31;68755;51.984;5.646;2024-01-27T14:39:15;7.2;73.9
79301;SHT31;68755;51.984;5.646;2024-01-27T14:41:45;7.2;74.4
79301;SHT31;68755;51.984;5.646;2024-01-27T14:44:14;7.3;74.2
79301;SHT31;68755;51.984;5.646;2024-01-27T14:46:44;7.3;73.8
79301;SHT31;68755;51.984;5.646;2024-01-27T14:49:16;7.3;74.3
79301;SHT31;68755;51.984;5.646;2024-01-27T14:51:45;7.3;75.6
79301;SHT31;68755;51.984;5.646;2024-01-27T14:54:15;7.3;73.8
79301;SHT31;68755;51.984;5.646;2024-01-27T14:56:45;7.3;73.4
79301;SHT31;68755;51.984;5.646;2024-01-27T14:59:15;7.3;73.4
79301;SHT31;68755;51.984;5.646;2024-01-27T15:01:45;7.3;73.1
79301;SHT31;68755;51.984;5.646;2024-01-27T15:04:17;7.3;72.4
79301;SHT31;68755;51.984;5.646;2024-01-27T15:06:46;7.3;72.1
79301;SHT31;68755;51.984;5.646;2024-01-27T15:09:18;7.3;72.7
79301;SHT31;68755;51.984;5.646;2024-01-27T15:11:48;7.3;72.7
79301;SHT31;68755;51.984;5.646;2024-01-27T15:14:18;7.3;72.5
79301;SHT31;68755;51.984;5.646;2024-01-27T15:16:48;7.3;72.5
79301;SHT31;68755;51.984;5.646;2024-01-27T15:19:20;7.3;72.2
79301;SHT31;68755;51.984;5.646;2024-01-27T15:21:49;7.3;72.7
79301;SHT31;68755;51.984;5.646;2024-01-27T15:24:21;7.3;72.7
79301;SHT31;68755;51.984;5.646;2024-01-27T15:26:51;7.3;72.8
79301;SHT31;68755;51.984;5.646;2024-01-27T15:29:20;7.2;73.2
79301;SHT31;68755;51.984;5.646;2024-01-27T15:31:50;7.2;73.0
79301;SHT31;68755;51.984;5.646;2024-01-27T15:34:20;7.2;72.9
79301;SHT31;68755;51.984;5.646;2024-01-27T15:36:50;7.2;73.1
79301;SHT31;68755;51.984;5.646;2024-01-27T15:39:20;7.2;72.9
79301;SHT31;68755;51.984;5.646;2024-01-27T15:41:49;7.2;73.1
79301;SHT31;68755;51.984;5.646;2024-01-27T15:44:19;7.2;73.3
79301;SHT31;68755;51.984;5.646;2024-01-27T15:46:50;7.2;73.4
79301;SHT31;68755;51.984;5.646;2024-01-27T15:49:20;7.1;73.2
79301;SHT31;68755;51.984;5.646;2024-01-27T15:51:49;7.1;72.9
79301;SHT31;68755;51.984;5.646;2024-01-27T15:54:21;7.1;73.1
79301;SHT31;68755;51.984;5.646;2024-01-27T15:56:51;7.1;73.1
79301;SHT31;68755;51.984;5.646;2024-01-27T15:59:21;7.1;73.0
79301;SHT31;68755;51.984;5.646;2024-01-27T16:01:51;7.1;73.0
79301;SHT31;68755;51.984;5.646;2024-01-27T16:04:21;7.1;73.0
79301;SHT31;68755;51.984;5.646;2024-01-27T16:06:51;7.0;73.1
79301;SHT31;68755;51.984;5.646;2024-01-27T16:09:21;7.0;73.0
79301;SHT31;68755;51.984;5.646;2024-01-27T16:11:50;7.0;73.2
79301;SHT31;68755;51.984;5.646;2024-01-27T16:14:22;7.0;72.9
79301;SHT31;68755;51.984;5.646;2024-01-27T16:16:52;7.0;72.9
79301;SHT31;68755;51.984;5.646;2024-01-27T16:19:21;7.0;73.2
79301;SHT31;68755;51.984;5.646;2024-01-27T16:21:51;7.0;73.1
79301;SHT31;68755;51.984;5.646;2024-01-27T16:24:20;6.9;73.1
79301;SHT31;68755;51.984;5.646;2024-01-27T16:26:50;6.9;73.3
79301;SHT31;68755;51.984;5.646;2024-01-27T16:29:20;6.9;73.4
79301;SHT31;68755;51.984;5.646;2024-01-27T16:31:49;6.9;73.2
79301;SHT31;68755;51.984;5.646;2024-01-27T16:34:19;6.9;73.3
79301;SHT31;68755;51.984;5.646;2024-01-27T16:36:49;6.9;73.3